Strona główna
METAR-TAF:

METAR-TAF

Lotnisko :

Port lotniczy Bruksela-Charleroi

Charleroi, Belgia

Szerokość geograficzna: 50-28N, Długość geograficzna: 004-27E, wysokość: 187 m

Aktualna obserwacja pogody

Raport powstał 29 minut temu, godzina 02:20 UTC
Wiatr 7 kt od zachodnio-południowy zachód
Temperatura 16°C
Wilgotność 77%
Ciśnienie 1014 hPa
Widzialność 10 km lub więcej
Przerywane chmury na wysokości 2800 ft

METAR: EBCI 190220Z 24007KT 9999 BKN028 16/12 Q1014 NOSIG

czas: 04:49 (02:49 UTC)

Prognoza

Raport powstał 3 godziny i 39 minut temu, godzina 23:10 UTC
Prognoza ważna od 19 godzina 00 UTC do 20 godzina 06 UTC
Wiatr 7 kt od południowy zachód
Widzialność 10 km lub więcej
Mało chmury na wysokości 2500 ft
Rozproszone chmury na wysokości 4000 ft
Prawdopodobieństwo 30% :
Przejściowo
od 20 godzina 03 UTC do 20 godzina 07 UTC
Przerywane chmury na wysokości 700 ft

TAF: EBCI 182310Z 1900/2006 22007KT 9999 FEW025 SCT040 PROB30 TEMPO 2003/2007 BKN007

Obserwacja i prognoza pogody dla ponad 4000 lotnisk (raport METAR i TAF).

Dostępne stacje oznaczono żółtymi i czerwonymi punktami na mapie.

Najedź kursorem aby zobaczyć nazwę stacji.

Kliknij aby zobaczyć obserwacje i prognozy pogody.

Aby zmienić mapę: kliknij na zielony przycisk z czarnym krzyżykiem, aby powiększyć; na zielony przycisk z myślnikiem, aby pomniejszyć; na zielone strzałki, aby przejść do map sąsiednich.


METAR-TAF: